sensor_id;sensor_type;location;lat;lon;timestamp;pressure;altitude;pressure_sealevel;temperature;humidity
75013;BME280;63567;49.956;20.130;2023-05-29T00:01:05;97182.56;;;12.50;59.76
75013;BME280;63567;49.956;20.130;2023-05-29T00:03:34;97189.66;;;12.49;59.54
75013;BME280;63567;49.956;20.130;2023-05-29T00:06:02;97180.88;;;12.42;59.43
75013;BME280;63567;49.956;20.130;2023-05-29T00:08:27;97190.44;;;12.43;59.86
75013;BME280;63567;49.956;20.130;2023-05-29T00:10:53;97182.09;;;12.40;59.74
75013;BME280;63567;49.956;20.130;2023-05-29T00:13:18;97183.72;;;12.41;59.68
75013;BME280;63567;49.956;20.130;2023-05-29T00:15:43;97186.75;;;12.38;59.87
75013;BME280;63567;49.956;20.130;2023-05-29T00:18:08;97182.69;;;12.35;59.89
75013;BME280;63567;49.956;20.130;2023-05-29T00:20:34;97182.06;;;12.33;59.76
75013;BME280;63567;49.956;20.130;2023-05-29T00:22:59;97178.16;;;12.29;59.99
75013;BME280;63567;49.956;20.130;2023-05-29T00:25:27;97180.19;;;12.27;59.65
75013;BME280;63567;49.956;20.130;2023-05-29T00:27:52;97174.28;;;12.25;60.07
75013;BME280;63567;49.956;20.130;2023-05-29T00:30:17;97167.75;;;12.21;60.36
75013;BME280;63567;49.956;20.130;2023-05-29T00:32:43;97168.78;;;12.20;60.14
75013;BME280;63567;49.956;20.130;2023-05-29T00:35:08;97171.44;;;12.20;60.07
75013;BME280;63567;49.956;20.130;2023-05-29T00:37:34;97170.00;;;12.17;60.48
75013;BME280;63567;49.956;20.130;2023-05-29T00:39:59;97167.94;;;12.12;60.61
75013;BME280;63567;49.956;20.130;2023-05-29T00:42:24;97180.31;;;12.12;60.67
75013;BME280;63567;49.956;20.130;2023-05-29T00:44:50;97178.88;;;12.09;60.74
75013;BME280;63567;49.956;20.130;2023-05-29T00:47:15;97163.81;;;12.03;60.76
75013;BME280;63567;49.956;20.130;2023-05-29T00:49:41;97166.44;;;12.03;61.04
75013;BME280;63567;49.956;20.130;2023-05-29T00:52:07;97177.00;;;12.03;61.30
75013;BME280;63567;49.956;20.130;2023-05-29T00:54:33;97163.75;;;11.97;60.75
75013;BME280;63567;49.956;20.130;2023-05-29T00:56:59;97165.41;;;11.98;61.29
75013;BME280;63567;49.956;20.130;2023-05-29T00:59:30;97162.34;;;11.94;61.32
75013;BME280;63567;49.956;20.130;2023-05-29T01:01:57;97164.75;;;11.89;61.64
75013;BME280;63567;49.956;20.130;2023-05-29T01:04:28;97181.84;;;11.93;62.00
75013;BME280;63567;49.956;20.130;2023-05-29T01:06:53;97183.00;;;11.90;62.38
75013;BME280;63567;49.956;20.130;2023-05-29T01:09:18;97171.84;;;11.88;61.77
75013;BME280;63567;49.956;20.130;2023-05-29T01:11:58;97171.03;;;11.88;61.87
75013;BME280;63567;49.956;20.130;2023-05-29T01:14:36;97172.19;;;11.85;62.15
75013;BME280;63567;49.956;20.130;2023-05-29T01:17:21;97169.94;;;11.82;61.75
75013;BME280;63567;49.956;20.130;2023-05-29T01:23:32;97170.72;;;11.76;61.90
75013;BME280;63567;49.956;20.130;2023-05-29T01:28:32;97166.38;;;11.68;62.13
75013;BME280;63567;49.956;20.130;2023-05-29T01:31:00;97163.13;;;11.66;62.19
75013;BME280;63567;49.956;20.130;2023-05-29T01:33:26;97166.16;;;11.63;62.49
75013;BME280;63567;49.956;20.130;2023-05-29T01:35:52;97161.06;;;11.62;62.54
75013;BME280;63567;49.956;20.130;2023-05-29T01:38:17;97165.53;;;11.61;62.47
75013;BME280;63567;49.956;20.130;2023-05-29T01:40:43;97165.91;;;11.58;62.45
75013;BME280;63567;49.956;20.130;2023-05-29T01:43:09;97164.47;;;11.56;62.22
75013;BME280;63567;49.956;20.130;2023-05-29T01:45:35;97163.03;;;11.53;62.82
75013;BME280;63567;49.956;20.130;2023-05-29T01:48:01;97164.84;;;11.52;63.20
75013;BME280;63567;49.956;20.130;2023-05-29T01:50:27;97158.13;;;11.50;62.87
75013;BME280;63567;49.956;20.130;2023-05-29T01:52:53;97154.88;;;11.48;62.93
75013;BME280;63567;49.956;20.130;2023-05-29T01:55:18;97168.06;;;11.48;63.48
75013;BME280;63567;49.956;20.130;2023-05-29T01:57:44;97154.44;;;11.44;62.84
75013;BME280;63567;49.956;20.130;2023-05-29T02:00:10;97156.44;;;11.42;63.32
75013;BME280;63567;49.956;20.130;2023-05-29T02:02:39;97155.00;;;11.40;63.25
75013;BME280;63567;49.956;20.130;2023-05-29T02:05:06;97151.13;;;11.36;63.29
75013;BME280;63567;49.956;20.130;2023-05-29T02:07:33;97153.13;;;11.34;63.85
75013;BME280;63567;49.956;20.130;2023-05-29T02:09:58;97156.78;;;11.33;63.87
75013;BME280;63567;49.956;20.130;2023-05-29T02:12:23;97151.88;;;11.29;63.50
75013;BME280;63567;49.956;20.130;2023-05-29T02:14:48;97149.44;;;11.28;64.03
75013;BME280;63567;49.956;20.130;2023-05-29T02:17:14;97141.88;;;11.25;63.99
75013;BME280;63567;49.956;20.130;2023-05-29T02:19:40;97142.09;;;11.23;64.09
75013;BME280;63567;49.956;20.130;2023-05-29T02:22:05;97147.56;;;11.22;64.14
75013;BME280;63567;49.956;20.130;2023-05-29T02:24:30;97148.75;;;11.19;64.39
75013;BME280;63567;49.956;20.130;2023-05-29T02:26:56;97144.47;;;11.18;64.21
75013;BME280;63567;49.956;20.130;2023-05-29T02:29:21;97144.88;;;11.15;64.32
75013;BME280;63567;49.956;20.130;2023-05-29T02:31:46;97139.13;;;11.12;64.05
75013;BME280;63567;49.956;20.130;2023-05-29T02:34:12;97142.78;;;11.10;64.41
75013;BME280;63567;49.956;20.130;2023-05-29T02:36:37;97139.53;;;11.08;64.69
75013;BME280;63567;49.956;20.130;2023-05-29T02:39:04;97135.41;;;11.06;64.26
75013;BME280;63567;49.956;20.130;2023-05-29T02:41:29;97133.81;;;11.05;64.74
75013;BME280;63567;49.956;20.130;2023-05-29T02:43:54;97133.19;;;11.03;64.78
75013;BME280;63567;49.956;20.130;2023-05-29T02:46:19;97133.34;;;11.01;64.73
75013;BME280;63567;49.956;20.130;2023-05-29T02:48:47;97131.75;;;11.00;65.02
75013;BME280;63567;49.956;20.130;2023-05-29T02:51:12;97134.72;;;10.97;65.22
75013;BME280;63567;49.956;20.130;2023-05-29T02:53:37;97132.31;;;10.96;65.08
75013;BME280;63567;49.956;20.130;2023-05-29T02:56:03;97129.03;;;10.94;65.47
75013;BME280;63567;49.956;20.130;2023-05-29T02:58:28;97135.31;;;10.93;65.38
75013;BME280;63567;49.956;20.130;2023-05-29T03:00:53;97133.69;;;10.92;65.90
75013;BME280;63567;49.956;20.130;2023-05-29T03:03:18;97130.41;;;10.89;65.99
75013;BME280;63567;49.956;20.130;2023-05-29T03:05:44;97125.53;;;10.86;66.02
75013;BME280;63567;49.956;20.130;2023-05-29T03:08:10;97122.28;;;10.84;65.79
75013;BME280;63567;49.956;20.130;2023-05-29T03:10:35;97126.91;;;10.82;65.93
75013;BME280;63567;49.956;20.130;2023-05-29T03:13:00;97136.63;;;10.82;65.77
75013;BME280;63567;49.956;20.130;2023-05-29T03:15:26;97130.72;;;10.80;65.85
75013;BME280;63567;49.956;20.130;2023-05-29T03:17:51;97123.19;;;10.77;65.46
75013;BME280;63567;49.956;20.130;2023-05-29T03:20:17;97139.00;;;10.77;65.62
75013;BME280;63567;49.956;20.130;2023-05-29T03:22:42;97137.38;;;10.76;65.90
75013;BME280;63567;49.956;20.130;2023-05-29T03:25:07;97140.03;;;10.76;65.70
75013;BME280;63567;49.956;20.130;2023-05-29T03:27:33;97141.81;;;10.75;65.85
75013;BME280;63567;49.956;20.130;2023-05-29T03:29:59;97147.28;;;10.74;65.96
75013;BME280;63567;49.956;20.130;2023-05-29T03:32:24;97145.66;;;10.73;65.88
75013;BME280;63567;49.956;20.130;2023-05-29T03:34:49;97149.09;;;10.73;66.07
75013;BME280;63567;49.956;20.130;2023-05-29T03:37:15;97150.09;;;10.72;65.27
75013;BME280;63567;49.956;20.130;2023-05-29T03:39:40;97140.38;;;10.73;65.71
75013;BME280;63567;49.956;20.130;2023-05-29T03:42:06;97145.81;;;10.71;65.69
75013;BME280;63567;49.956;20.130;2023-05-29T03:44:31;97136.13;;;10.72;65.71
75013;BME280;63567;49.956;20.130;2023-05-29T03:46:56;97142.56;;;10.69;65.33
75013;BME280;63567;49.956;20.130;2023-05-29T03:49:21;97146.19;;;10.68;65.93
75013;BME280;63567;49.956;20.130;2023-05-29T03:51:47;97153.94;;;10.69;65.37
75013;BME280;63567;49.956;20.130;2023-05-29T03:54:13;97146.19;;;10.68;66.00
75013;BME280;63567;49.956;20.130;2023-05-29T03:56:38;97152.28;;;10.68;65.53
75013;BME280;63567;49.956;20.130;2023-05-29T03:59:04;97150.47;;;10.69;65.61
75013;BME280;63567;49.956;20.130;2023-05-29T04:01:29;97148.84;;;10.68;65.71
75013;BME280;63567;49.956;20.130;2023-05-29T04:03:54;97153.09;;;10.69;65.72
75013;BME280;63567;49.956;20.130;2023-05-29T04:06:20;97143.56;;;10.68;65.86
75013;BME280;63567;49.956;20.130;2023-05-29T04:08:46;97150.47;;;10.69;65.70
75013;BME280;63567;49.956;20.130;2023-05-29T04:11:12;97149.66;;;10.68;65.83
75013;BME280;63567;49.956;20.130;2023-05-29T04:13:38;97153.72;;;10.71;65.60
75013;BME280;63567;49.956;20.130;2023-05-29T04:16:04;97151.09;;;10.71;65.22
75013;BME280;63567;49.956;20.130;2023-05-29T04:18:29;97151.72;;;10.73;65.64
75013;BME280;63567;49.956;20.130;2023-05-29T04:20:54;97156.00;;;10.74;65.93
75013;BME280;63567;49.956;20.130;2023-05-29T04:23:20;97159.28;;;10.76;66.28
75013;BME280;63567;49.956;20.130;2023-05-29T04:25:46;97154.63;;;10.78;66.42
75013;BME280;63567;49.956;20.130;2023-05-29T04:28:11;97154.06;;;10.83;66.48
75013;BME280;63567;49.956;20.130;2023-05-29T04:30:37;97161.59;;;10.86;66.73
75013;BME280;63567;49.956;20.130;2023-05-29T04:33:04;97153.31;;;10.89;66.38
75013;BME280;63567;49.956;20.130;2023-05-29T04:35:29;97163.47;;;10.92;66.48
75013;BME280;63567;49.956;20.130;2023-05-29T04:37:55;97155.22;;;10.95;66.22
75013;BME280;63567;49.956;20.130;2023-05-29T04:40:21;97155.63;;;10.99;66.85
75013;BME280;63567;49.956;20.130;2023-05-29T04:42:47;97156.91;;;11.03;66.94
75013;BME280;63567;49.956;20.130;2023-05-29T04:45:12;97161.78;;;11.06;67.68
75013;BME280;63567;49.956;20.130;2023-05-29T04:47:37;97160.41;;;11.10;66.65
75013;BME280;63567;49.956;20.130;2023-05-29T04:50:12;97155.75;;;11.12;66.56
75013;BME280;63567;49.956;20.130;2023-05-29T04:52:38;97161.31;;;11.17;66.57
75013;BME280;63567;49.956;20.130;2023-05-29T04:55:04;97164.81;;;11.24;66.70
75013;BME280;63567;49.956;20.130;2023-05-29T04:57:30;97164.25;;;11.29;66.40
75013;BME280;63567;49.956;20.130;2023-05-29T04:59:55;97163.50;;;11.35;65.92
75013;BME280;63567;49.956;20.130;2023-05-29T05:02:21;97161.94;;;11.41;66.16
75013;BME280;63567;49.956;20.130;2023-05-29T05:04:46;97159.53;;;11.46;65.57
75013;BME280;63567;49.956;20.130;2023-05-29T05:07:12;97163.84;;;11.54;66.27
75013;BME280;63567;49.956;20.130;2023-05-29T05:09:37;97164.28;;;11.57;66.23
75013;BME280;63567;49.956;20.130;2023-05-29T05:12:03;97156.41;;;11.64;66.14
75013;BME280;63567;49.956;20.130;2023-05-29T05:14:28;97152.38;;;11.68;66.18
75013;BME280;63567;49.956;20.130;2023-05-29T05:16:53;97159.72;;;11.72;66.42
75013;BME280;63567;49.956;20.130;2023-05-29T05:19:19;97166.69;;;11.80;66.33
75013;BME280;63567;49.956;20.130;2023-05-29T05:21:44;97170.56;;;11.84;66.16
75013;BME280;63567;49.956;20.130;2023-05-29T05:24:09;97165.38;;;11.91;66.24
75013;BME280;63567;49.956;20.130;2023-05-29T05:26:35;97159.09;;;11.99;66.52
75013;BME280;63567;49.956;20.130;2023-05-29T05:29:00;97153.88;;;12.05;66.36
75013;BME280;63567;49.956;20.130;2023-05-29T05:31:26;97160.22;;;12.11;66.49
75013;BME280;63567;49.956;20.130;2023-05-29T05:33:51;97158.63;;;12.17;66.04
75013;BME280;63567;49.956;20.130;2023-05-29T05:36:17;97154.19;;;12.24;65.91
75013;BME280;63567;49.956;20.130;2023-05-29T05:38:42;97157.66;;;12.31;66.44
75013;BME280;63567;49.956;20.130;2023-05-29T05:41:07;97161.13;;;12.38;66.05
75013;BME280;63567;49.956;20.130;2023-05-29T05:43:32;97163.44;;;12.48;66.50
75013;BME280;63567;49.956;20.130;2023-05-29T05:45:58;97162.47;;;12.56;66.28
75013;BME280;63567;49.956;20.130;2023-05-29T05:48:23;97166.75;;;12.63;65.95
75013;BME280;63567;49.956;20.130;2023-05-29T05:50:48;97162.09;;;12.72;64.87
75013;BME280;63567;49.956;20.130;2023-05-29T05:53:14;97163.53;;;12.81;65.37
75013;BME280;63567;49.956;20.130;2023-05-29T05:55:39;97163.38;;;12.89;65.41
75013;BME280;63567;49.956;20.130;2023-05-29T05:58:04;97163.19;;;12.98;65.29
75013;BME280;63567;49.956;20.130;2023-05-29T06:00:29;97165.44;;;13.07;65.30
75013;BME280;63567;49.956;20.130;2023-05-29T06:02:55;97162.59;;;13.15;64.77
75013;BME280;63567;49.956;20.130;2023-05-29T06:05:20;97171.78;;;13.26;64.58
75013;BME280;63567;49.956;20.130;2023-05-29T06:07:46;97179.38;;;13.36;65.11
75013;BME280;63567;49.956;20.130;2023-05-29T06:10:11;97181.59;;;13.46;65.34
75013;BME280;63567;49.956;20.130;2023-05-29T06:12:36;97182.22;;;13.54;65.34
75013;BME280;63567;49.956;20.130;2023-05-29T06:15:02;97186.09;;;13.65;65.77
75013;BME280;63567;49.956;20.130;2023-05-29T06:17:29;97187.31;;;13.76;65.69
75013;BME280;63567;49.956;20.130;2023-05-29T06:19:54;97188.53;;;13.87;65.85
75013;BME280;63567;49.956;20.130;2023-05-29T06:22:20;97192.59;;;13.96;65.19
75013;BME280;63567;49.956;20.130;2023-05-29T06:24:45;97191.94;;;14.07;65.19
75013;BME280;63567;49.956;20.130;2023-05-29T06:27:10;97201.31;;;14.16;65.17
75013;BME280;63567;49.956;20.130;2023-05-29T06:29:36;97199.03;;;14.27;64.83
75013;BME280;63567;49.956;20.130;2023-05-29T06:32:01;97197.59;;;14.37;64.77
75013;BME280;63567;49.956;20.130;2023-05-29T06:34:26;97201.44;;;14.48;64.50
75013;BME280;63567;49.956;20.130;2023-05-29T06:36:52;97209.00;;;14.58;64.59
75013;BME280;63567;49.956;20.130;2023-05-29T06:39:17;97201.63;;;14.67;64.50
75013;BME280;63567;49.956;20.130;2023-05-29T06:41:43;97204.84;;;14.75;64.24
75013;BME280;63567;49.956;20.130;2023-05-29T06:44:08;97211.53;;;14.85;64.05
75013;BME280;63567;49.956;20.130;2023-05-29T06:46:33;97223.53;;;14.94;64.25
75013;BME280;63567;49.956;20.130;2023-05-29T06:48:59;97223.91;;;15.04;63.72
75013;BME280;63567;49.956;20.130;2023-05-29T06:51:24;97230.38;;;15.15;63.45
75013;BME280;63567;49.956;20.130;2023-05-29T06:53:49;97229.94;;;15.25;63.40
75013;BME280;63567;49.956;20.130;2023-05-29T06:56:15;97230.50;;;15.33;63.67
75013;BME280;63567;49.956;20.130;2023-05-29T06:58:40;97233.47;;;15.44;63.00
75013;BME280;63567;49.956;20.130;2023-05-29T07:01:05;97227.69;;;15.53;62.95
75013;BME280;63567;49.956;20.130;2023-05-29T07:03:31;97228.25;;;15.62;63.04
75013;BME280;63567;49.956;20.130;2023-05-29T07:05:56;97233.69;;;15.74;63.13
75013;BME280;63567;49.956;20.130;2023-05-29T07:08:22;97227.91;;;15.84;62.94
75013;BME280;63567;49.956;20.130;2023-05-29T07:10:47;97231.91;;;15.93;62.90
75013;BME280;63567;49.956;20.130;2023-05-29T07:13:15;97235.13;;;16.01;63.20
75013;BME280;63567;49.956;20.130;2023-05-29T07:15:41;97241.56;;;16.12;62.81
75013;BME280;63567;49.956;20.130;2023-05-29T07:18:06;97242.09;;;16.21;62.64
75013;BME280;63567;49.956;20.130;2023-05-29T07:20:31;97243.44;;;16.30;62.66
75013;BME280;63567;49.956;20.130;2023-05-29T07:22:57;97245.38;;;16.41;62.07
75013;BME280;63567;49.956;20.130;2023-05-29T07:25:22;97245.09;;;16.50;61.60
75013;BME280;63567;49.956;20.130;2023-05-29T07:27:47;97239.47;;;16.58;61.85
75013;BME280;63567;49.956;20.130;2023-05-29T07:30:12;97243.47;;;16.67;61.48
75013;BME280;63567;49.956;20.130;2023-05-29T07:32:38;97248.28;;;16.77;61.44
75013;BME280;63567;49.956;20.130;2023-05-29T07:35:03;97237.13;;;16.87;61.22
75013;BME280;63567;49.956;20.130;2023-05-29T07:37:29;97244.81;;;16.95;60.90
75013;BME280;63567;49.956;20.130;2023-05-29T07:39:55;97245.91;;;17.06;60.74
75013;BME280;63567;49.956;20.130;2023-05-29T07:42:20;97245.03;;;17.12;60.55
75013;BME280;63567;49.956;20.130;2023-05-29T07:44:45;97243.66;;;17.21;60.74
75013;BME280;63567;49.956;20.130;2023-05-29T07:47:11;97251.94;;;17.31;60.06
75013;BME280;63567;49.956;20.130;2023-05-29T07:49:36;97250.56;;;17.40;59.79
75013;BME280;63567;49.956;20.130;2023-05-29T07:52:02;97247.97;;;17.52;59.87
75013;BME280;63567;49.956;20.130;2023-05-29T07:54:28;97252.72;;;17.62;59.65
75013;BME280;63567;49.956;20.130;2023-05-29T07:56:53;97260.97;;;17.72;59.75
75013;BME280;63567;49.956;20.130;2023-05-29T07:59:19;97259.03;;;17.79;59.35
75013;BME280;63567;49.956;20.130;2023-05-29T08:01:44;97258.50;;;17.89;58.92
75013;BME280;63567;49.956;20.130;2023-05-29T08:04:09;97255.25;;;17.99;58.46
75013;BME280;63567;49.956;20.130;2023-05-29T08:06:35;97262.44;;;18.10;58.53
75013;BME280;63567;49.956;20.130;2023-05-29T08:09:01;97253.91;;;18.20;58.35
75013;BME280;63567;49.956;20.130;2023-05-29T08:11:27;97255.97;;;18.30;57.99
75013;BME280;63567;49.956;20.130;2023-05-29T08:13:52;97260.97;;;18.38;57.67
75013;BME280;63567;49.956;20.130;2023-05-29T08:16:17;97256.09;;;18.46;57.45
75013;BME280;63567;49.956;20.130;2023-05-29T08:18:43;97259.56;;;18.59;57.76
75013;BME280;63567;49.956;20.130;2023-05-29T08:21:08;97257.56;;;18.66;57.11
75013;BME280;63567;49.956;20.130;2023-05-29T08:23:35;97256.41;;;18.74;56.66
75013;BME280;63567;49.956;20.130;2023-05-29T08:26:01;97258.28;;;18.85;57.17
75013;BME280;63567;49.956;20.130;2023-05-29T08:28:27;97251.28;;;18.96;57.26
75013;BME280;63567;49.956;20.130;2023-05-29T08:30:53;97257.16;;;19.09;57.56
75013;BME280;63567;49.956;20.130;2023-05-29T08:33:18;97253.63;;;19.21;57.00
75013;BME280;63567;49.956;20.130;2023-05-29T08:35:43;97256.50;;;19.31;57.06
75013;BME280;63567;49.956;20.130;2023-05-29T08:38:08;97261.22;;;19.41;55.06
75013;BME280;63567;49.956;20.130;2023-05-29T08:40:34;97260.84;;;19.49;55.85
75013;BME280;63567;49.956;20.130;2023-05-29T08:43:03;97261.59;;;19.61;56.16
75013;BME280;63567;49.956;20.130;2023-05-29T08:45:33;97262.13;;;19.75;56.23
75013;BME280;63567;49.956;20.130;2023-05-29T08:48:00;97267.16;;;19.88;56.22
75013;BME280;63567;49.956;20.130;2023-05-29T08:50:25;97265.47;;;19.99;55.50
75013;BME280;63567;49.956;20.130;2023-05-29T08:52:51;97276.91;;;20.11;56.35
75013;BME280;63567;49.956;20.130;2023-05-29T08:55:16;97272.03;;;20.25;54.86
75013;BME280;63567;49.956;20.130;2023-05-29T08:57:41;97266.59;;;20.37;55.69
75013;BME280;63567;49.956;20.130;2023-05-29T09:00:09;97274.50;;;20.49;55.48
75013;BME280;63567;49.956;20.130;2023-05-29T09:02:38;97280.63;;;20.61;55.57
75013;BME280;63567;49.956;20.130;2023-05-29T09:05:03;97278.56;;;20.68;54.18
75013;BME280;63567;49.956;20.130;2023-05-29T09:07:29;97272.31;;;20.80;54.24
75013;BME280;63567;49.956;20.130;2023-05-29T09:09:56;97270.31;;;20.92;54.84
75013;BME280;63567;49.956;20.130;2023-05-29T09:12:21;97276.91;;;21.06;54.11
75013;BME280;63567;49.956;20.130;2023-05-29T09:14:46;97277.06;;;21.17;53.58
75013;BME280;63567;49.956;20.130;2023-05-29T09:17:12;97268.06;;;21.28;53.86
75013;BME280;63567;49.956;20.130;2023-05-29T09:19:38;97267.19;;;21.44;53.75
75013;BME280;63567;49.956;20.130;2023-05-29T09:22:09;97263.53;;;21.56;52.96
75013;BME280;63567;49.956;20.130;2023-05-29T09:24:36;97261.03;;;21.71;54.03
75013;BME280;63567;49.956;20.130;2023-05-29T09:27:04;97264.09;;;21.85;53.28
75013;BME280;63567;49.956;20.130;2023-05-29T09:29:33;97266.09;;;22.00;54.26
75013;BME280;63567;49.956;20.130;2023-05-29T09:31:59;97265.13;;;22.11;52.78
75013;BME280;63567;49.956;20.130;2023-05-29T09:34:25;97257.50;;;22.30;54.07
75013;BME280;63567;49.956;20.130;2023-05-29T09:36:52;97257.34;;;22.47;53.72
75013;BME280;63567;49.956;20.130;2023-05-29T09:39:18;97259.81;;;22.59;52.38
75013;BME280;63567;49.956;20.130;2023-05-29T09:41:44;97259.34;;;22.72;52.79
75013;BME280;63567;49.956;20.130;2023-05-29T09:44:13;97259.97;;;22.89;52.38
75013;BME280;63567;49.956;20.130;2023-05-29T09:46:40;97253.91;;;23.09;53.28
75013;BME280;63567;49.956;20.130;2023-05-29T09:49:13;97254.53;;;23.32;52.00
75013;BME280;63567;49.956;20.130;2023-05-29T09:51:39;97255.63;;;23.46;50.20
75013;BME280;63567;49.956;20.130;2023-05-29T09:54:17;97253.25;;;23.60;48.17
75013;BME280;63567;49.956;20.130;2023-05-29T09:56:44;97258.41;;;23.82;49.10
75013;BME280;63567;49.956;20.130;2023-05-29T09:59:14;97258.16;;;23.99;48.18
75013;BME280;63567;49.956;20.130;2023-05-29T10:01:41;97258.94;;;24.15;49.04
75013;BME280;63567;49.956;20.130;2023-05-29T10:04:07;97263.25;;;24.36;49.41
75013;BME280;63567;49.956;20.130;2023-05-29T10:06:40;97264.06;;;24.57;49.38
75013;BME280;63567;49.956;20.130;2023-05-29T10:09:09;97257.53;;;24.74;47.23
75013;BME280;63567;49.956;20.130;2023-05-29T10:11:37;97259.63;;;24.87;45.52
75013;BME280;63567;49.956;20.130;2023-05-29T10:14:03;97257.19;;;25.01;47.07
75013;BME280;63567;49.956;20.130;2023-05-29T10:16:31;97266.78;;;25.17;48.10
75013;BME280;63567;49.956;20.130;2023-05-29T10:19:01;97265.72;;;25.29;46.06
75013;BME280;63567;49.956;20.130;2023-05-29T10:21:27;97257.22;;;25.51;45.78
75013;BME280;63567;49.956;20.130;2023-05-29T10:23:54;97261.19;;;25.64;46.91
75013;BME280;63567;49.956;20.130;2023-05-29T10:26:23;97255.72;;;25.74;44.30
75013;BME280;63567;49.956;20.130;2023-05-29T10:29:24;97263.69;;;25.94;46.48
75013;BME280;63567;49.956;20.130;2023-05-29T10:32:04;97252.53;;;26.06;42.84
75013;BME280;63567;49.956;20.130;2023-05-29T10:39:49;97242.88;;;26.58;43.09
75013;BME280;63567;49.956;20.130;2023-05-29T10:42:40;97241.09;;;26.73;41.73
75013;BME280;63567;49.956;20.130;2023-05-29T10:45:07;97243.88;;;26.92;41.02
75013;BME280;63567;49.956;20.130;2023-05-29T10:47:32;97237.47;;;27.07;41.25
75013;BME280;63567;49.956;20.130;2023-05-29T10:50:02;97240.81;;;27.22;40.81
75013;BME280;63567;49.956;20.130;2023-05-29T10:52:31;97251.41;;;27.38;39.57
75013;BME280;63567;49.956;20.130;2023-05-29T10:54:56;97241.16;;;27.54;39.65
75013;BME280;63567;49.956;20.130;2023-05-29T10:57:22;97236.72;;;27.63;37.84
75013;BME280;63567;49.956;20.130;2023-05-29T10:59:57;97234.44;;;27.70;37.36
75013;BME280;63567;49.956;20.130;2023-05-29T11:02:22;97239.78;;;27.94;41.64
75013;BME280;63567;49.956;20.130;2023-05-29T11:05:24;97239.41;;;28.15;37.83
75013;BME280;63567;49.956;20.130;2023-05-29T11:08:00;97242.69;;;28.31;38.89
75013;BME280;63567;49.956;20.130;2023-05-29T11:13:54;97247.19;;;28.68;36.11
75013;BME280;63567;49.956;20.130;2023-05-29T11:16:36;97236.72;;;28.75;35.37
75013;BME280;63567;49.956;20.130;2023-05-29T11:19:08;97236.22;;;29.01;36.46
75013;BME280;63567;49.956;20.130;2023-05-29T11:21:54;97239.56;;;29.12;34.11
75013;BME280;63567;49.956;20.130;2023-05-29T11:24:26;97233.13;;;29.21;31.92
75013;BME280;63567;49.956;20.130;2023-05-29T11:26:56;97238.94;;;29.28;31.74
75013;BME280;63567;49.956;20.130;2023-05-29T11:29:27;97238.09;;;29.42;32.06
75013;BME280;63567;49.956;20.130;2023-05-29T11:32:06;97234.81;;;29.54;30.90
75013;BME280;63567;49.956;20.130;2023-05-29T11:34:40;97238.88;;;29.56;31.01
75013;BME280;63567;49.956;20.130;2023-05-29T11:37:06;97237.50;;;29.67;30.48
75013;BME280;63567;49.956;20.130;2023-05-29T11:39:35;97235.69;;;29.77;31.06
75013;BME280;63567;49.956;20.130;2023-05-29T11:42:01;97233.84;;;29.86;30.61
75013;BME280;63567;49.956;20.130;2023-05-29T11:44:26;97237.44;;;29.95;31.31
75013;BME280;63567;49.956;20.130;2023-05-29T11:47:03;97235.69;;;29.99;30.74
75013;BME280;63567;49.956;20.130;2023-05-29T11:49:32;97231.28;;;30.12;30.66
75013;BME280;63567;49.956;20.130;2023-05-29T11:52:25;97226.53;;;30.18;30.78
75013;BME280;63567;49.956;20.130;2023-05-29T11:54:51;97231.78;;;30.37;29.40
75013;BME280;63567;49.956;20.130;2023-05-29T11:57:21;97229.69;;;30.34;30.06
75013;BME280;63567;49.956;20.130;2023-05-29T11:59:47;97222.19;;;30.39;30.34
75013;BME280;63567;49.956;20.130;2023-05-29T12:02:14;97220.19;;;30.54;29.69
75013;BME280;63567;49.956;20.130;2023-05-29T12:04:39;97218.66;;;30.70;29.38
75013;BME280;63567;49.956;20.130;2023-05-29T12:07:20;97222.59;;;30.86;28.92
75013;BME280;63567;49.956;20.130;2023-05-29T12:09:45;97213.06;;;30.84;28.67
75013;BME280;63567;49.956;20.130;2023-05-29T12:12:12;97214.28;;;31.00;28.84
75013;BME280;63567;49.956;20.130;2023-05-29T12:14:37;97216.03;;;31.05;28.21
75013;BME280;63567;49.956;20.130;2023-05-29T12:17:04;97214.13;;;31.05;28.47
75013;BME280;63567;49.956;20.130;2023-05-29T12:19:30;97219.44;;;31.19;27.83
75013;BME280;63567;49.956;20.130;2023-05-29T12:21:56;97206.16;;;31.26;27.75
75013;BME280;63567;49.956;20.130;2023-05-29T12:24:22;97210.06;;;31.43;27.86
75013;BME280;63567;49.956;20.130;2023-05-29T12:26:47;97199.63;;;31.62;27.70
75013;BME280;63567;49.956;20.130;2023-05-29T12:29:12;97210.84;;;31.69;26.82
75013;BME280;63567;49.956;20.130;2023-05-29T12:31:38;97208.28;;;31.82;26.91
75013;BME280;63567;49.956;20.130;2023-05-29T12:34:08;97202.34;;;31.80;26.23
75013;BME280;63567;49.956;20.130;2023-05-29T12:36:34;97199.13;;;31.86;26.10
75013;BME280;63567;49.956;20.130;2023-05-29T12:38:59;97197.38;;;31.90;25.55
75013;BME280;63567;49.956;20.130;2023-05-29T12:41:35;97200.22;;;31.94;25.95
75013;BME280;63567;49.956;20.130;2023-05-29T12:44:02;97196.72;;;32.02;25.66
75013;BME280;63567;49.956;20.130;2023-05-29T12:46:34;97193.69;;;32.04;24.63
75013;BME280;63567;49.956;20.130;2023-05-29T12:49:11;97188.19;;;32.12;25.70
75013;BME280;63567;49.956;20.130;2023-05-29T12:51:40;97198.91;;;32.26;24.91
75013;BME280;63567;49.956;20.130;2023-05-29T12:54:05;97192.63;;;32.34;25.47
75013;BME280;63567;49.956;20.130;2023-05-29T12:56:31;97195.31;;;32.43;24.78
75013;BME280;63567;49.956;20.130;2023-05-29T12:58:56;97193.22;;;32.58;24.55
75013;BME280;63567;49.956;20.130;2023-05-29T13:01:21;97190.94;;;32.60;23.25
75013;BME280;63567;49.956;20.130;2023-05-29T13:03:48;97191.38;;;32.70;23.97